sensor_id;sensor_type;location;lat;lon;timestamp;temperature;humidity
66013;DHT22;52783;50.502;8.190;2023-11-18T00:01:15;2.80;99.90
66013;DHT22;52783;50.502;8.190;2023-11-18T00:03:40;2.80;99.90
66013;DHT22;52783;50.502;8.190;2023-11-18T00:06:06;2.80;99.90
66013;DHT22;52783;50.502;8.190;2023-11-18T00:08:33;2.90;99.90
66013;DHT22;52783;50.502;8.190;2023-11-18T00:10:58;2.90;99.90
66013;DHT22;52783;50.502;8.190;2023-11-18T00:13:24;2.90;99.90
66013;DHT22;52783;50.502;8.190;2023-11-18T00:15:51;3.00;99.90
66013;DHT22;52783;50.502;8.190;2023-11-18T00:18:17;3.10;99.90
66013;DHT22;52783;50.502;8.190;2023-11-18T00:20:44;3.10;99.90
66013;DHT22;52783;50.502;8.190;2023-11-18T00:23:10;3.20;99.90
66013;DHT22;52783;50.502;8.190;2023-11-18T00:25:35;3.20;99.90
66013;DHT22;52783;50.502;8.190;2023-11-18T00:28:01;3.20;99.90
66013;DHT22;52783;50.502;8.190;2023-11-18T00:30:27;3.20;99.90
66013;DHT22;52783;50.502;8.190;2023-11-18T00:32:53;3.10;99.90
66013;DHT22;52783;50.502;8.190;2023-11-18T00:35:19;3.10;99.90
66013;DHT22;52783;50.502;8.190;2023-11-18T00:37:45;3.00;99.90
66013;DHT22;52783;50.502;8.190;2023-11-18T00:40:10;2.90;99.90
66013;DHT22;52783;50.502;8.190;2023-11-18T00:42:37;3.00;99.90
66013;DHT22;52783;50.502;8.190;2023-11-18T00:45:04;3.10;99.90
66013;DHT22;52783;50.502;8.190;2023-11-18T00:47:30;3.10;99.90
66013;DHT22;52783;50.502;8.190;2023-11-18T00:49:55;3.00;99.90
66013;DHT22;52783;50.502;8.190;2023-11-18T00:52:22;3.00;99.90
66013;DHT22;52783;50.502;8.190;2023-11-18T00:54:48;3.10;99.90
66013;DHT22;52783;50.502;8.190;2023-11-18T00:57:13;3.10;99.90
66013;DHT22;52783;50.502;8.190;2023-11-18T00:59:43;3.20;99.90
66013;DHT22;52783;50.502;8.190;2023-11-18T01:02:09;3.20;99.90
66013;DHT22;52783;50.502;8.190;2023-11-18T01:04:34;3.20;99.90
66013;DHT22;52783;50.502;8.190;2023-11-18T01:07:00;3.20;99.90
66013;DHT22;52783;50.502;8.190;2023-11-18T01:09:25;3.20;99.90
66013;DHT22;52783;50.502;8.190;2023-11-18T01:11:51;3.20;99.90
66013;DHT22;52783;50.502;8.190;2023-11-18T01:14:16;3.20;99.90
66013;DHT22;52783;50.502;8.190;2023-11-18T01:16:43;3.20;99.90
66013;DHT22;52783;50.502;8.190;2023-11-18T01:19:09;3.30;99.90
66013;DHT22;52783;50.502;8.190;2023-11-18T01:21:35;3.30;99.90
66013;DHT22;52783;50.502;8.190;2023-11-18T01:24:02;3.20;99.90
66013;DHT22;52783;50.502;8.190;2023-11-18T01:26:27;3.20;99.90
66013;DHT22;52783;50.502;8.190;2023-11-18T01:28:53;3.20;99.90
66013;DHT22;52783;50.502;8.190;2023-11-18T01:31:18;3.20;99.90
66013;DHT22;52783;50.502;8.190;2023-11-18T01:33:44;3.20;99.90
66013;DHT22;52783;50.502;8.190;2023-11-18T01:36:11;3.30;99.90
66013;DHT22;52783;50.502;8.190;2023-11-18T01:38:37;3.30;99.90
66013;DHT22;52783;50.502;8.190;2023-11-18T01:41:07;3.30;99.90
66013;DHT22;52783;50.502;8.190;2023-11-18T01:43:33;3.30;99.90
66013;DHT22;52783;50.502;8.190;2023-11-18T01:46:03;3.20;99.90
66013;DHT22;52783;50.502;8.190;2023-11-18T01:48:31;3.10;99.90
66013;DHT22;52783;50.502;8.190;2023-11-18T01:50:59;3.10;99.90
66013;DHT22;52783;50.502;8.190;2023-11-18T01:53:26;3.10;99.90
66013;DHT22;52783;50.502;8.190;2023-11-18T01:55:53;3.10;99.90
66013;DHT22;52783;50.502;8.190;2023-11-18T01:58:20;3.00;99.90
66013;DHT22;52783;50.502;8.190;2023-11-18T02:00:48;3.00;99.90
66013;DHT22;52783;50.502;8.190;2023-11-18T02:03:16;3.00;99.90
66013;DHT22;52783;50.502;8.190;2023-11-18T02:05:42;2.90;99.90
66013;DHT22;52783;50.502;8.190;2023-11-18T02:08:07;2.90;99.90
66013;DHT22;52783;50.502;8.190;2023-11-18T02:10:35;2.90;99.90
66013;DHT22;52783;50.502;8.190;2023-11-18T02:13:12;2.90;99.90
66013;DHT22;52783;50.502;8.190;2023-11-18T02:15:39;3.00;99.90
66013;DHT22;52783;50.502;8.190;2023-11-18T02:18:06;3.00;99.90
66013;DHT22;52783;50.502;8.190;2023-11-18T02:20:36;3.00;99.90
66013;DHT22;52783;50.502;8.190;2023-11-18T02:23:02;2.70;99.90
66013;DHT22;52783;50.502;8.190;2023-11-18T02:25:29;2.50;99.90
66013;DHT22;52783;50.502;8.190;2023-11-18T02:27:57;2.60;99.90
66013;DHT22;52783;50.502;8.190;2023-11-18T02:30:23;2.70;99.90
66013;DHT22;52783;50.502;8.190;2023-11-18T02:33:15;2.80;99.90
66013;DHT22;52783;50.502;8.190;2023-11-18T02:35:51;2.80;99.90
66013;DHT22;52783;50.502;8.190;2023-11-18T02:38:30;2.70;99.90
66013;DHT22;52783;50.502;8.190;2023-11-18T02:41:00;2.80;99.90
66013;DHT22;52783;50.502;8.190;2023-11-18T02:43:28;2.70;99.90
66013;DHT22;52783;50.502;8.190;2023-11-18T02:45:55;2.70;99.90
66013;DHT22;52783;50.502;8.190;2023-11-18T02:48:22;2.70;99.90
66013;DHT22;52783;50.502;8.190;2023-11-18T02:50:48;2.70;99.90
66013;DHT22;52783;50.502;8.190;2023-11-18T02:53:13;2.70;99.90
66013;DHT22;52783;50.502;8.190;2023-11-18T02:55:39;2.70;99.90
66013;DHT22;52783;50.502;8.190;2023-11-18T02:58:06;2.80;99.90
66013;DHT22;52783;50.502;8.190;2023-11-18T03:00:35;2.80;99.90
66013;DHT22;52783;50.502;8.190;2023-11-18T03:03:03;2.80;99.90
66013;DHT22;52783;50.502;8.190;2023-11-18T03:05:30;2.80;99.90
66013;DHT22;52783;50.502;8.190;2023-11-18T03:07:55;2.80;99.90
66013;DHT22;52783;50.502;8.190;2023-11-18T03:10:23;2.80;99.90
66013;DHT22;52783;50.502;8.190;2023-11-18T03:12:50;2.50;99.90
66013;DHT22;52783;50.502;8.190;2023-11-18T03:15:16;2.60;99.90
66013;DHT22;52783;50.502;8.190;2023-11-18T03:17:48;2.70;99.90
66013;DHT22;52783;50.502;8.190;2023-11-18T03:20:19;2.70;99.90
66013;DHT22;52783;50.502;8.190;2023-11-18T03:22:46;2.60;99.90
66013;DHT22;52783;50.502;8.190;2023-11-18T03:25:15;2.60;99.90
66013;DHT22;52783;50.502;8.190;2023-11-18T03:27:41;2.60;99.90
66013;DHT22;52783;50.502;8.190;2023-11-18T03:30:07;2.60;99.90
66013;DHT22;52783;50.502;8.190;2023-11-18T03:32:34;2.70;99.90
66013;DHT22;52783;50.502;8.190;2023-11-18T03:35:01;2.80;99.90
66013;DHT22;52783;50.502;8.190;2023-11-18T03:37:27;2.80;99.90
66013;DHT22;52783;50.502;8.190;2023-11-18T03:39:53;2.70;99.90
66013;DHT22;52783;50.502;8.190;2023-11-18T03:42:18;2.70;99.90
66013;DHT22;52783;50.502;8.190;2023-11-18T03:44:44;2.70;99.90
66013;DHT22;52783;50.502;8.190;2023-11-18T03:47:16;2.60;99.90
66013;DHT22;52783;50.502;8.190;2023-11-18T03:49:41;2.50;99.90
66013;DHT22;52783;50.502;8.190;2023-11-18T03:52:07;2.60;99.90
66013;DHT22;52783;50.502;8.190;2023-11-18T03:54:33;2.70;99.90
66013;DHT22;52783;50.502;8.190;2023-11-18T03:56:58;2.50;99.90
66013;DHT22;52783;50.502;8.190;2023-11-18T03:59:25;2.70;99.90
66013;DHT22;52783;50.502;8.190;2023-11-18T04:01:50;2.70;99.90
66013;DHT22;52783;50.502;8.190;2023-11-18T04:04:16;2.70;99.90
66013;DHT22;52783;50.502;8.190;2023-11-18T04:06:43;2.70;99.90
66013;DHT22;52783;50.502;8.190;2023-11-18T04:09:08;2.70;99.90
66013;DHT22;52783;50.502;8.190;2023-11-18T04:11:35;2.60;99.90
66013;DHT22;52783;50.502;8.190;2023-11-18T04:14:01;2.50;99.90
66013;DHT22;52783;50.502;8.190;2023-11-18T04:16:29;2.50;99.90
66013;DHT22;52783;50.502;8.190;2023-11-18T04:18:54;2.50;99.90
66013;DHT22;52783;50.502;8.190;2023-11-18T04:21:21;2.60;99.90
66013;DHT22;52783;50.502;8.190;2023-11-18T04:23:47;2.70;99.90
66013;DHT22;52783;50.502;8.190;2023-11-18T04:26:13;2.60;99.90
66013;DHT22;52783;50.502;8.190;2023-11-18T04:28:39;2.60;99.90
66013;DHT22;52783;50.502;8.190;2023-11-18T04:31:05;2.70;99.90
66013;DHT22;52783;50.502;8.190;2023-11-18T04:33:31;2.50;99.90
66013;DHT22;52783;50.502;8.190;2023-11-18T04:35:57;2.50;99.90
66013;DHT22;52783;50.502;8.190;2023-11-18T04:38:23;2.40;99.90
66013;DHT22;52783;50.502;8.190;2023-11-18T04:40:49;2.30;99.90
66013;DHT22;52783;50.502;8.190;2023-11-18T04:43:15;2.40;99.90
66013;DHT22;52783;50.502;8.190;2023-11-18T04:45:43;2.40;99.90
66013;DHT22;52783;50.502;8.190;2023-11-18T04:48:09;2.40;99.90
66013;DHT22;52783;50.502;8.190;2023-11-18T04:50:34;2.50;99.90
66013;DHT22;52783;50.502;8.190;2023-11-18T04:53:00;2.40;99.90
66013;DHT22;52783;50.502;8.190;2023-11-18T04:55:25;2.50;99.90
66013;DHT22;52783;50.502;8.190;2023-11-18T04:57:52;2.50;99.90
66013;DHT22;52783;50.502;8.190;2023-11-18T05:00:17;2.50;99.90
66013;DHT22;52783;50.502;8.190;2023-11-18T05:02:45;2.40;99.90
66013;DHT22;52783;50.502;8.190;2023-11-18T05:05:13;2.30;99.90
66013;DHT22;52783;50.502;8.190;2023-11-18T05:07:40;2.40;99.90
66013;DHT22;52783;50.502;8.190;2023-11-18T05:10:06;2.50;99.90
66013;DHT22;52783;50.502;8.190;2023-11-18T05:12:33;2.40;99.90
66013;DHT22;52783;50.502;8.190;2023-11-18T05:14:59;2.20;99.90
66013;DHT22;52783;50.502;8.190;2023-11-18T05:17:26;2.20;99.90
66013;DHT22;52783;50.502;8.190;2023-11-18T05:19:55;2.30;99.90
66013;DHT22;52783;50.502;8.190;2023-11-18T05:22:20;2.00;99.90
66013;DHT22;52783;50.502;8.190;2023-11-18T05:24:46;2.00;99.90
66013;DHT22;52783;50.502;8.190;2023-11-18T05:27:13;2.00;99.90
66013;DHT22;52783;50.502;8.190;2023-11-18T05:29:39;2.00;99.90
66013;DHT22;52783;50.502;8.190;2023-11-18T05:32:07;1.90;99.90
66013;DHT22;52783;50.502;8.190;2023-11-18T05:34:33;1.90;99.90
66013;DHT22;52783;50.502;8.190;2023-11-18T05:37:00;1.90;99.90
66013;DHT22;52783;50.502;8.190;2023-11-18T05:39:26;2.00;99.90
66013;DHT22;52783;50.502;8.190;2023-11-18T05:41:54;2.10;99.90
66013;DHT22;52783;50.502;8.190;2023-11-18T05:44:21;2.00;99.90
66013;DHT22;52783;50.502;8.190;2023-11-18T05:46:56;2.00;99.90
66013;DHT22;52783;50.502;8.190;2023-11-18T05:49:22;2.00;99.90
66013;DHT22;52783;50.502;8.190;2023-11-18T05:51:48;2.10;99.90
66013;DHT22;52783;50.502;8.190;2023-11-18T05:54:13;2.00;99.90
66013;DHT22;52783;50.502;8.190;2023-11-18T05:56:39;2.10;99.90
66013;DHT22;52783;50.502;8.190;2023-11-18T05:59:04;2.00;99.90
66013;DHT22;52783;50.502;8.190;2023-11-18T06:01:30;2.00;99.90
66013;DHT22;52783;50.502;8.190;2023-11-18T06:03:55;2.10;99.90
66013;DHT22;52783;50.502;8.190;2023-11-18T06:06:22;2.10;99.90
66013;DHT22;52783;50.502;8.190;2023-11-18T06:08:48;2.10;99.90
66013;DHT22;52783;50.502;8.190;2023-11-18T06:11:15;2.10;99.90
66013;DHT22;52783;50.502;8.190;2023-11-18T06:13:48;2.10;99.90
66013;DHT22;52783;50.502;8.190;2023-11-18T06:16:24;2.20;99.90
66013;DHT22;52783;50.502;8.190;2023-11-18T06:18:51;2.30;99.90
66013;DHT22;52783;50.502;8.190;2023-11-18T06:21:18;2.40;99.90
66013;DHT22;52783;50.502;8.190;2023-11-18T06:23:46;2.40;99.90
66013;DHT22;52783;50.502;8.190;2023-11-18T06:26:13;2.40;99.90
66013;DHT22;52783;50.502;8.190;2023-11-18T06:28:44;2.50;99.90
66013;DHT22;52783;50.502;8.190;2023-11-18T06:31:10;2.50;99.90
66013;DHT22;52783;50.502;8.190;2023-11-18T06:33:41;2.60;99.90
66013;DHT22;52783;50.502;8.190;2023-11-18T06:36:09;2.50;99.90
66013;DHT22;52783;50.502;8.190;2023-11-18T06:38:36;2.40;99.90
66013;DHT22;52783;50.502;8.190;2023-11-18T06:41:03;2.50;99.90
66013;DHT22;52783;50.502;8.190;2023-11-18T06:43:31;2.50;99.90
66013;DHT22;52783;50.502;8.190;2023-11-18T06:46:11;2.50;99.90
66013;DHT22;52783;50.502;8.190;2023-11-18T06:48:39;2.50;99.90
66013;DHT22;52783;50.502;8.190;2023-11-18T06:51:06;2.50;99.90
66013;DHT22;52783;50.502;8.190;2023-11-18T06:53:33;2.60;99.90
66013;DHT22;52783;50.502;8.190;2023-11-18T06:56:00;2.50;99.90
66013;DHT22;52783;50.502;8.190;2023-11-18T06:58:25;2.50;99.90
66013;DHT22;52783;50.502;8.190;2023-11-18T07:00:52;2.50;99.90
66013;DHT22;52783;50.502;8.190;2023-11-18T07:03:17;2.40;99.90
66013;DHT22;52783;50.502;8.190;2023-11-18T07:05:43;2.50;99.90
66013;DHT22;52783;50.502;8.190;2023-11-18T07:08:09;2.40;99.90
66013;DHT22;52783;50.502;8.190;2023-11-18T07:10:35;2.30;99.90
66013;DHT22;52783;50.502;8.190;2023-11-18T07:13:03;2.40;99.90
66013;DHT22;52783;50.502;8.190;2023-11-18T07:15:29;2.50;99.90
66013;DHT22;52783;50.502;8.190;2023-11-18T07:17:54;2.50;99.90
66013;DHT22;52783;50.502;8.190;2023-11-18T07:20:20;2.60;99.90
66013;DHT22;52783;50.502;8.190;2023-11-18T07:22:45;2.70;99.90
66013;DHT22;52783;50.502;8.190;2023-11-18T07:25:11;2.70;99.90
66013;DHT22;52783;50.502;8.190;2023-11-18T07:27:37;2.60;99.90
66013;DHT22;52783;50.502;8.190;2023-11-18T07:30:02;2.70;99.90
66013;DHT22;52783;50.502;8.190;2023-11-18T07:32:31;2.50;99.90
66013;DHT22;52783;50.502;8.190;2023-11-18T07:34:59;2.40;99.90
66013;DHT22;52783;50.502;8.190;2023-11-18T07:37:24;2.20;99.90
66013;DHT22;52783;50.502;8.190;2023-11-18T07:39:52;2.00;99.90
66013;DHT22;52783;50.502;8.190;2023-11-18T07:42:21;2.10;99.90
66013;DHT22;52783;50.502;8.190;2023-11-18T07:44:47;2.10;99.90
66013;DHT22;52783;50.502;8.190;2023-11-18T07:47:13;2.10;99.90
66013;DHT22;52783;50.502;8.190;2023-11-18T07:49:41;2.20;99.90
66013;DHT22;52783;50.502;8.190;2023-11-18T07:52:07;2.20;99.90
66013;DHT22;52783;50.502;8.190;2023-11-18T07:54:32;2.40;99.90
66013;DHT22;52783;50.502;8.190;2023-11-18T07:56:58;2.50;99.90
66013;DHT22;52783;50.502;8.190;2023-11-18T07:59:24;2.60;99.90
66013;DHT22;52783;50.502;8.190;2023-11-18T08:01:50;2.40;99.90
66013;DHT22;52783;50.502;8.190;2023-11-18T08:04:16;2.30;99.90
66013;DHT22;52783;50.502;8.190;2023-11-18T08:06:43;2.40;99.90
66013;DHT22;52783;50.502;8.190;2023-11-18T08:09:09;2.50;99.90
66013;DHT22;52783;50.502;8.190;2023-11-18T08:11:38;2.60;99.90
66013;DHT22;52783;50.502;8.190;2023-11-18T08:14:06;2.70;99.90
66013;DHT22;52783;50.502;8.190;2023-11-18T08:16:33;2.80;99.90
66013;DHT22;52783;50.502;8.190;2023-11-18T08:18:58;2.70;99.90
66013;DHT22;52783;50.502;8.190;2023-11-18T08:21:24;2.80;99.90
66013;DHT22;52783;50.502;8.190;2023-11-18T08:23:49;2.80;99.90
66013;DHT22;52783;50.502;8.190;2023-11-18T08:26:15;2.90;99.90
66013;DHT22;52783;50.502;8.190;2023-11-18T08:28:41;2.90;99.90
66013;DHT22;52783;50.502;8.190;2023-11-18T08:31:06;3.00;99.90
66013;DHT22;52783;50.502;8.190;2023-11-18T08:33:32;3.20;99.90
66013;DHT22;52783;50.502;8.190;2023-11-18T08:35:59;3.20;99.90
66013;DHT22;52783;50.502;8.190;2023-11-18T08:38:26;3.20;99.90
66013;DHT22;52783;50.502;8.190;2023-11-18T08:40:53;3.30;99.90
66013;DHT22;52783;50.502;8.190;2023-11-18T08:43:20;3.30;99.90
66013;DHT22;52783;50.502;8.190;2023-11-18T08:45:46;3.40;99.90
66013;DHT22;52783;50.502;8.190;2023-11-18T08:48:13;3.40;99.90
66013;DHT22;52783;50.502;8.190;2023-11-18T08:50:39;3.60;99.90
66013;DHT22;52783;50.502;8.190;2023-11-18T08:53:08;3.60;99.90
66013;DHT22;52783;50.502;8.190;2023-11-18T08:55:35;3.70;99.90
66013;DHT22;52783;50.502;8.190;2023-11-18T08:58:12;3.80;99.90
66013;DHT22;52783;50.502;8.190;2023-11-18T09:00:42;3.80;99.90
66013;DHT22;52783;50.502;8.190;2023-11-18T09:03:24;3.90;99.90
66013;DHT22;52783;50.502;8.190;2023-11-18T09:05:54;3.90;99.90
66013;DHT22;52783;50.502;8.190;2023-11-18T09:08:30;4.00;99.90
66013;DHT22;52783;50.502;8.190;2023-11-18T09:11:09;4.00;99.90
66013;DHT22;52783;50.502;8.190;2023-11-18T09:13:43;3.90;99.90
66013;DHT22;52783;50.502;8.190;2023-11-18T09:16:15;3.70;99.90
66013;DHT22;52783;50.502;8.190;2023-11-18T09:18:43;3.70;99.90
66013;DHT22;52783;50.502;8.190;2023-11-18T09:21:11;3.80;99.90
66013;DHT22;52783;50.502;8.190;2023-11-18T09:23:41;4.00;99.90
66013;DHT22;52783;50.502;8.190;2023-11-18T09:26:07;4.10;99.90
66013;DHT22;52783;50.502;8.190;2023-11-18T09:28:34;4.00;99.90
66013;DHT22;52783;50.502;8.190;2023-11-18T09:31:00;4.00;99.90
66013;DHT22;52783;50.502;8.190;2023-11-18T09:33:29;4.00;99.90
66013;DHT22;52783;50.502;8.190;2023-11-18T09:36:01;4.10;99.90
66013;DHT22;52783;50.502;8.190;2023-11-18T09:38:31;4.10;99.90
66013;DHT22;52783;50.502;8.190;2023-11-18T09:41:00;4.30;99.90
66013;DHT22;52783;50.502;8.190;2023-11-18T09:43:32;4.30;99.90
66013;DHT22;52783;50.502;8.190;2023-11-18T09:46:04;4.20;99.90
66013;DHT22;52783;50.502;8.190;2023-11-18T09:48:42;4.20;99.90
66013;DHT22;52783;50.502;8.190;2023-11-18T09:51:08;4.20;99.90
66013;DHT22;52783;50.502;8.190;2023-11-18T09:53:38;4.20;99.90
66013;DHT22;52783;50.502;8.190;2023-11-18T09:56:15;4.20;99.90
66013;DHT22;52783;50.502;8.190;2023-11-18T09:59:10;4.30;99.90
66013;DHT22;52783;50.502;8.190;2023-11-18T10:01:42;4.20;99.90
66013;DHT22;52783;50.502;8.190;2023-11-18T10:04:09;4.20;99.90
66013;DHT22;52783;50.502;8.190;2023-11-18T10:06:36;4.20;99.90
66013;DHT22;52783;50.502;8.190;2023-11-18T10:09:06;4.30;99.90
66013;DHT22;52783;50.502;8.190;2023-11-18T10:11:42;4.40;99.90
66013;DHT22;52783;50.502;8.190;2023-11-18T10:14:08;4.40;99.90
66013;DHT22;52783;50.502;8.190;2023-11-18T10:16:36;4.50;99.90
66013;DHT22;52783;50.502;8.190;2023-11-18T10:19:04;6.70;99.90
66013;DHT22;52783;50.502;8.190;2023-11-18T10:21:37;5.70;99.90
66013;DHT22;52783;50.502;8.190;2023-11-18T10:24:08;5.40;99.90
66013;DHT22;52783;50.502;8.190;2023-11-18T10:26:42;5.10;99.90
66013;DHT22;52783;50.502;8.190;2023-11-18T10:29:09;5.00;99.90
66013;DHT22;52783;50.502;8.190;2023-11-18T10:31:36;4.90;99.90
66013;DHT22;52783;50.502;8.190;2023-11-18T10:34:03;4.90;99.90
66013;DHT22;52783;50.502;8.190;2023-11-18T10:36:29;4.80;99.90
66013;DHT22;52783;50.502;8.190;2023-11-18T10:38:58;4.90;99.90
66013;DHT22;52783;50.502;8.190;2023-11-18T10:41:26;4.80;99.90
66013;DHT22;52783;50.502;8.190;2023-11-18T10:44:07;4.80;99.90
66013;DHT22;52783;50.502;8.190;2023-11-18T10:46:40;4.90;99.90
66013;DHT22;52783;50.502;8.190;2023-11-18T10:49:06;4.90;99.90
66013;DHT22;52783;50.502;8.190;2023-11-18T10:51:35;4.90;99.90
66013;DHT22;52783;50.502;8.190;2023-11-18T10:54:05;4.90;99.90
66013;DHT22;52783;50.502;8.190;2023-11-18T10:56:31;4.90;99.90
66013;DHT22;52783;50.502;8.190;2023-11-18T10:59:05;5.80;99.90
66013;DHT22;52783;50.502;8.190;2023-11-18T11:01:36;5.10;99.90
66013;DHT22;52783;50.502;8.190;2023-11-18T11:04:08;5.00;99.90
66013;DHT22;52783;50.502;8.190;2023-11-18T11:06:41;5.00;99.90
66013;DHT22;52783;50.502;8.190;2023-11-18T11:09:07;4.90;99.90
66013;DHT22;52783;50.502;8.190;2023-11-18T11:11:49;4.80;99.90
66013;DHT22;52783;50.502;8.190;2023-11-18T11:14:16;4.60;99.90
66013;DHT22;52783;50.502;8.190;2023-11-18T11:16:47;4.70;99.90
66013;DHT22;52783;50.502;8.190;2023-11-18T11:19:34;4.80;99.90
66013;DHT22;52783;50.502;8.190;2023-11-18T11:22:10;4.80;99.90
66013;DHT22;52783;50.502;8.190;2023-11-18T11:27:22;4.70;99.90
66013;DHT22;52783;50.502;8.190;2023-11-18T11:30:10;4.70;99.90
66013;DHT22;52783;50.502;8.190;2023-11-18T11:32:53;4.70;99.90
66013;DHT22;52783;50.502;8.190;2023-11-18T11:35:22;4.70;99.90
66013;DHT22;52783;50.502;8.190;2023-11-18T11:37:49;4.60;99.90
66013;DHT22;52783;50.502;8.190;2023-11-18T11:40:15;4.60;99.90
66013;DHT22;52783;50.502;8.190;2023-11-18T11:42:49;4.70;99.90
66013;DHT22;52783;50.502;8.190;2023-11-18T11:45:23;4.60;99.90
66013;DHT22;52783;50.502;8.190;2023-11-18T11:47:54;4.70;99.90
66013;DHT22;52783;50.502;8.190;2023-11-18T11:50:48;4.70;99.90
66013;DHT22;52783;50.502;8.190;2023-11-18T11:53:21;4.90;99.90
66013;DHT22;52783;50.502;8.190;2023-11-18T11:55:49;5.00;99.90
66013;DHT22;52783;50.502;8.190;2023-11-18T11:58:28;5.00;99.90
66013;DHT22;52783;50.502;8.190;2023-11-18T12:00:53;5.00;99.90
66013;DHT22;52783;50.502;8.190;2023-11-18T12:03:21;5.00;99.90
66013;DHT22;52783;50.502;8.190;2023-11-18T12:05:49;5.00;99.90
66013;DHT22;52783;50.502;8.190;2023-11-18T12:08:16;5.10;99.90
66013;DHT22;52783;50.502;8.190;2023-11-18T12:10:51;5.20;99.90
66013;DHT22;52783;50.502;8.190;2023-11-18T12:13:18;5.10;99.90
66013;DHT22;52783;50.502;8.190;2023-11-18T12:15:52;5.00;99.90
66013;DHT22;52783;50.502;8.190;2023-11-18T12:18:29;5.00;99.90
66013;DHT22;52783;50.502;8.190;2023-11-18T12:20:57;5.10;99.90
66013;DHT22;52783;50.502;8.190;2023-11-18T12:23:28;5.10;99.90
66013;DHT22;52783;50.502;8.190;2023-11-18T12:25:55;5.00;99.90
66013;DHT22;52783;50.502;8.190;2023-11-18T12:28:28;5.00;99.90
66013;DHT22;52783;50.502;8.190;2023-11-18T12:30:57;5.00;99.90
66013;DHT22;52783;50.502;8.190;2023-11-18T12:33:27;5.10;99.90
66013;DHT22;52783;50.502;8.190;2023-11-18T12:42:03;5.10;99.90
66013;DHT22;52783;50.502;8.190;2023-11-18T12:44:36;5.10;99.90
66013;DHT22;52783;50.502;8.190;2023-11-18T12:47:05;5.20;99.90
66013;DHT22;52783;50.502;8.190;2023-11-18T12:49:41;5.30;99.90
66013;DHT22;52783;50.502;8.190;2023-11-18T12:52:11;5.40;99.90
66013;DHT22;52783;50.502;8.190;2023-11-18T12:54:40;5.40;99.90
66013;DHT22;52783;50.502;8.190;2023-11-18T12:57:10;5.40;99.90
66013;DHT22;52783;50.502;8.190;2023-11-18T12:59:39;5.40;99.90
66013;DHT22;52783;50.502;8.190;2023-11-18T13:02:11;5.40;99.90
66013;DHT22;52783;50.502;8.190;2023-11-18T13:04:43;5.50;99.90
66013;DHT22;52783;50.502;8.190;2023-11-18T13:07:16;5.60;99.90
66013;DHT22;52783;50.502;8.190;2023-11-18T13:09:43;5.70;99.90
66013;DHT22;52783;50.502;8.190;2023-11-18T13:12:11;5.80;99.90
66013;DHT22;52783;50.502;8.190;2023-11-18T13:14:41;5.90;99.90
66013;DHT22;52783;50.502;8.190;2023-11-18T13:17:15;5.90;99.90
66013;DHT22;52783;50.502;8.190;2023-11-18T13:19:44;6.00;99.90
66013;DHT22;52783;50.502;8.190;2023-11-18T13:22:12;6.10;99.90
66013;DHT22;52783;50.502;8.190;2023-11-18T13:24:43;6.10;99.90
66013;DHT22;52783;50.502;8.190;2023-11-18T13:27:16;6.20;99.90
66013;DHT22;52783;50.502;8.190;2023-11-18T13:29:46;6.10;99.90
66013;DHT22;52783;50.502;8.190;2023-11-18T13:32:15;6.10;99.90
66013;DHT22;52783;50.502;8.190;2023-11-18T13:34:40;6.10;99.90
66013;DHT22;52783;50.502;8.190;2023-11-18T13:37:08;6.10;99.90
66013;DHT22;52783;50.502;8.190;2023-11-18T13:39:34;6.10;99.90
66013;DHT22;52783;50.502;8.190;2023-11-18T13:42:19;6.00;99.90
66013;DHT22;52783;50.502;8.190;2023-11-18T13:44:45;6.00;99.90
66013;DHT22;52783;50.502;8.190;2023-11-18T13:47:12;6.20;99.90
66013;DHT22;52783;50.502;8.190;2023-11-18T13:49:39;6.20;99.90
66013;DHT22;52783;50.502;8.190;2023-11-18T13:52:09;6.30;99.90
66013;DHT22;52783;50.502;8.190;2023-11-18T13:54:37;6.30;99.90
66013;DHT22;52783;50.502;8.190;2023-11-18T13:57:04;6.30;99.90
66013;DHT22;52783;50.502;8.190;2023-11-18T13:59:30;6.30;99.90
66013;DHT22;52783;50.502;8.190;2023-11-18T14:01:56;6.30;99.90
66013;DHT22;52783;50.502;8.190;2023-11-18T14:04:24;6.30;99.90
66013;DHT22;52783;50.502;8.190;2023-11-18T14:06:56;6.20;99.90
66013;DHT22;52783;50.502;8.190;2023-11-18T14:09:22;6.30;99.90
66013;DHT22;52783;50.502;8.190;2023-11-18T14:11:53;6.20;99.90
66013;DHT22;52783;50.502;8.190;2023-11-18T14:14:25;6.20;99.90
66013;DHT22;52783;50.502;8.190;2023-11-18T14:16:51;6.30;99.90
66013;DHT22;52783;50.502;8.190;2023-11-18T14:19:19;6.30;99.90
66013;DHT22;52783;50.502;8.190;2023-11-18T14:21:45;6.40;99.90
66013;DHT22;52783;50.502;8.190;2023-11-18T14:24:11;6.40;99.90
66013;DHT22;52783;50.502;8.190;2023-11-18T14:26:37;6.40;99.90
66013;DHT22;52783;50.502;8.190;2023-11-18T14:29:05;6.40;99.90
66013;DHT22;52783;50.502;8.190;2023-11-18T14:31:32;6.40;99.90
66013;DHT22;52783;50.502;8.190;2023-11-18T14:33:57;6.30;99.90
66013;DHT22;52783;50.502;8.190;2023-11-18T14:36:28;6.40;99.90
66013;DHT22;52783;50.502;8.190;2023-11-18T14:38:54;6.50;99.90
66013;DHT22;52783;50.502;8.190;2023-11-18T14:41:20;6.50;99.90
66013;DHT22;52783;50.502;8.190;2023-11-18T14:43:50;6.50;99.90
66013;DHT22;52783;50.502;8.190;2023-11-18T14:46:15;6.50;99.90
66013;DHT22;52783;50.502;8.190;2023-11-18T14:48:41;6.50;99.90
66013;DHT22;52783;50.502;8.190;2023-11-18T14:51:07;6.40;99.90
66013;DHT22;52783;50.502;8.190;2023-11-18T14:53:33;6.40;99.90
66013;DHT22;52783;50.502;8.190;2023-11-18T14:55:59;6.40;99.90
66013;DHT22;52783;50.502;8.190;2023-11-18T14:58:25;6.40;99.90
66013;DHT22;52783;50.502;8.190;2023-11-18T15:00:51;6.50;99.90
66013;DHT22;52783;50.502;8.190;2023-11-18T15:03:17;6.50;99.90
66013;DHT22;52783;50.502;8.190;2023-11-18T15:05:43;6.50;99.90
66013;DHT22;52783;50.502;8.190;2023-11-18T15:08:09;6.70;99.90
66013;DHT22;52783;50.502;8.190;2023-11-18T15:10:35;6.60;99.90
66013;DHT22;52783;50.502;8.190;2023-11-18T15:13:02;6.50;99.90
66013;DHT22;52783;50.502;8.190;2023-11-18T15:15:30;6.50;99.90
66013;DHT22;52783;50.502;8.190;2023-11-18T15:18:04;6.50;99.90
66013;DHT22;52783;50.502;8.190;2023-11-18T15:20:30;6.50;99.90
66013;DHT22;52783;50.502;8.190;2023-11-18T15:22:56;6.50;99.90
66013;DHT22;52783;50.502;8.190;2023-11-18T15:25:22;6.50;99.90
66013;DHT22;52783;50.502;8.190;2023-11-18T15:27:48;6.40;99.90
66013;DHT22;52783;50.502;8.190;2023-11-18T15:30:15;6.50;99.90
66013;DHT22;52783;50.502;8.190;2023-11-18T15:32:43;6.50;99.90
66013;DHT22;52783;50.502;8.190;2023-11-18T15:35:09;6.40;99.90
66013;DHT22;52783;50.502;8.190;2023-11-18T15:37:39;6.40;99.90
66013;DHT22;52783;50.502;8.190;2023-11-18T15:40:10;6.50;99.90
66013;DHT22;52783;50.502;8.190;2023-11-18T15:42:41;6.50;99.90
66013;DHT22;52783;50.502;8.190;2023-11-18T15:45:12;6.50;99.90
66013;DHT22;52783;50.502;8.190;2023-11-18T15:47:38;6.40;99.90
66013;DHT22;52783;50.502;8.190;2023-11-18T15:50:07;6.40;99.90
66013;DHT22;52783;50.502;8.190;2023-11-18T15:52:34;6.30;99.90
66013;DHT22;52783;50.502;8.190;2023-11-18T15:55:01;6.40;99.90
66013;DHT22;52783;50.502;8.190;2023-11-18T15:57:27;6.40;99.90
66013;DHT22;52783;50.502;8.190;2023-11-18T15:59:54;6.50;99.90